createdAt,value
2023-06-29T00:01:03.753Z,16.23
2023-06-29T00:03:33.652Z,16.24
2023-06-29T00:06:02.765Z,16.20
2023-06-29T00:08:37.067Z,16.21
2023-06-29T00:11:04.880Z,16.21
2023-06-29T00:13:31.933Z,16.20
2023-06-29T00:15:58.793Z,16.17
2023-06-29T00:18:29.556Z,16.17
2023-06-29T00:20:57.617Z,16.18
2023-06-29T00:23:26.130Z,16.21
2023-06-29T00:25:53.743Z,16.24
2023-06-29T00:28:20.577Z,16.28
2023-06-29T00:30:48.817Z,16.32
2023-06-29T00:33:15.642Z,16.35
2023-06-29T00:35:42.740Z,16.37
2023-06-29T00:38:09.821Z,16.37
2023-06-29T00:40:36.776Z,16.35
2023-06-29T00:43:03.695Z,16.35
2023-06-29T00:45:31.631Z,16.34
2023-06-29T00:47:58.969Z,16.33
2023-06-29T00:50:26.647Z,16.35
2023-06-29T00:52:54.068Z,16.36
2023-06-29T00:55:22.620Z,16.37
2023-06-29T00:57:49.434Z,16.34
2023-06-29T01:00:16.785Z,16.28
2023-06-29T01:02:44.377Z,16.25
2023-06-29T01:05:14.855Z,16.21
2023-06-29T01:07:51.601Z,16.16
2023-06-29T01:10:24.839Z,16.18
2023-06-29T01:12:53.335Z,16.22
2023-06-29T01:15:22.869Z,16.27
2023-06-29T01:17:56.041Z,16.29
2023-06-29T01:20:27.201Z,16.26
2023-06-29T01:22:56.003Z,16.22
2023-06-29T01:25:24.938Z,16.19
2023-06-29T01:27:51.837Z,16.19
2023-06-29T01:30:19.474Z,16.18
2023-06-29T01:32:46.956Z,16.18
2023-06-29T01:35:14.547Z,16.15
2023-06-29T01:37:57.099Z,16.13
2023-06-29T01:40:29.014Z,16.07
2023-06-29T01:42:58.195Z,16.02
2023-06-29T01:45:26.182Z,15.97
2023-06-29T01:47:56.866Z,15.97
2023-06-29T01:50:25.191Z,16.02
2023-06-29T01:52:52.011Z,16.02
2023-06-29T01:55:18.892Z,16.07
2023-06-29T01:57:45.718Z,16.15
2023-06-29T02:00:14.471Z,16.17
2023-06-29T02:02:41.966Z,16.16
2023-06-29T02:05:09.575Z,16.19
2023-06-29T02:07:36.543Z,16.15
2023-06-29T02:10:03.791Z,16.13
2023-06-29T02:12:31.914Z,16.13
2023-06-29T02:14:58.721Z,16.15
2023-06-29T02:17:25.569Z,16.15
2023-06-29T02:19:52.472Z,16.10
2023-06-29T02:22:19.214Z,16.08
2023-06-29T02:24:46.083Z,16.05
2023-06-29T02:27:12.998Z,16.01
2023-06-29T02:29:43.129Z,16.01
2023-06-29T02:32:09.933Z,15.98
2023-06-29T02:34:36.787Z,15.97
2023-06-29T02:37:04.878Z,15.97
2023-06-29T02:39:31.963Z,15.95
2023-06-29T02:41:58.961Z,15.97
2023-06-29T02:44:26.319Z,15.95
2023-06-29T02:46:53.097Z,15.94
2023-06-29T02:49:19.960Z,15.93
2023-06-29T02:51:47.634Z,15.91
2023-06-29T02:54:15.981Z,15.89
2023-06-29T02:56:44.446Z,15.86
2023-06-29T02:59:11.408Z,15.88
2023-06-29T03:01:38.199Z,15.92
2023-06-29T03:04:05.198Z,15.94
2023-06-29T03:06:34.553Z,15.94
2023-06-29T03:09:02.506Z,15.97
2023-06-29T03:11:29.332Z,16.02
2023-06-29T03:13:57.783Z,16.08
2023-06-29T03:16:24.721Z,16.10
2023-06-29T03:19:07.371Z,16.09
2023-06-29T03:21:34.558Z,16.08
2023-06-29T03:24:01.372Z,16.05
2023-06-29T03:26:28.192Z,16.03
2023-06-29T03:28:55.077Z,16.00
2023-06-29T03:31:21.922Z,16.03
2023-06-29T03:33:49.621Z,16.06
2023-06-29T03:36:16.787Z,16.10
2023-06-29T03:38:43.547Z,16.14
2023-06-29T03:41:10.566Z,16.17
2023-06-29T03:43:37.370Z,16.26
2023-06-29T03:46:04.169Z,16.30
2023-06-29T03:48:31.227Z,16.31
2023-06-29T03:50:58.653Z,16.33
2023-06-29T03:53:25.456Z,16.34
2023-06-29T03:55:52.353Z,16.36
2023-06-29T03:58:19.518Z,16.37
2023-06-29T04:00:46.475Z,16.40
2023-06-29T04:03:13.631Z,16.41
2023-06-29T04:05:40.728Z,16.44
2023-06-29T04:08:08.016Z,16.48
2023-06-29T04:10:35.380Z,16.52
2023-06-29T04:13:03.087Z,16.53
2023-06-29T04:15:31.504Z,16.53
2023-06-29T04:17:58.524Z,16.57
2023-06-29T04:20:25.890Z,16.63
2023-06-29T04:22:52.736Z,16.66
2023-06-29T04:25:19.791Z,16.69
2023-06-29T04:27:47.095Z,16.74
2023-06-29T04:30:14.246Z,16.79
2023-06-29T04:32:41.115Z,16.85
2023-06-29T04:35:10.801Z,16.92
2023-06-29T04:37:41.997Z,16.97
2023-06-29T04:40:11.018Z,17.03
2023-06-29T04:42:46.831Z,17.10
2023-06-29T04:45:19.222Z,17.13
2023-06-29T04:47:50.932Z,17.17
2023-06-29T04:50:27.644Z,17.23
2023-06-29T04:52:55.535Z,17.26
2023-06-29T04:55:23.939Z,17.33
2023-06-29T04:57:50.802Z,17.41
2023-06-29T05:00:18.070Z,17.48
2023-06-29T05:02:45.076Z,17.52
2023-06-29T05:05:12.809Z,17.54
2023-06-29T05:07:39.809Z,17.52
2023-06-29T05:10:07.139Z,17.52
2023-06-29T05:12:34.730Z,17.51
2023-06-29T05:15:01.546Z,17.54
2023-06-29T05:17:28.464Z,17.55
2023-06-29T05:19:55.387Z,17.55
2023-06-29T05:22:22.219Z,17.57
2023-06-29T05:24:49.165Z,17.59
2023-06-29T05:27:16.011Z,17.60
2023-06-29T05:29:42.852Z,17.59
2023-06-29T05:32:10.065Z,17.56
2023-06-29T05:34:37.027Z,17.66
2023-06-29T05:37:03.993Z,17.77
2023-06-29T05:39:30.887Z,17.85
2023-06-29T05:41:57.813Z,17.99
2023-06-29T05:44:24.660Z,18.11
2023-06-29T05:46:51.504Z,18.16
2023-06-29T05:49:18.514Z,18.21
2023-06-29T05:51:45.500Z,18.22
2023-06-29T05:54:12.529Z,18.24
2023-06-29T05:56:39.406Z,18.25
2023-06-29T05:59:06.305Z,18.28
2023-06-29T06:01:33.332Z,18.28
2023-06-29T06:04:00.419Z,18.36
2023-06-29T06:06:27.335Z,18.47
2023-06-29T06:08:54.158Z,18.53
2023-06-29T06:11:20.974Z,18.57
2023-06-29T06:13:47.845Z,18.65
2023-06-29T06:16:14.975Z,18.65
2023-06-29T06:18:42.595Z,18.60
2023-06-29T06:21:09.523Z,18.58
2023-06-29T06:23:36.696Z,18.53
2023-06-29T06:26:03.719Z,18.57
2023-06-29T06:28:30.552Z,18.64
2023-06-29T06:30:57.420Z,18.72
2023-06-29T06:33:24.422Z,18.72
2023-06-29T06:35:51.271Z,18.65
2023-06-29T06:38:18.725Z,18.58
2023-06-29T06:40:45.941Z,18.52
2023-06-29T06:43:12.887Z,18.68
2023-06-29T06:45:39.894Z,18.83
2023-06-29T06:48:06.819Z,18.95
2023-06-29T06:50:33.674Z,19.13
2023-06-29T06:53:01.057Z,19.22
2023-06-29T06:55:28.347Z,19.36
2023-06-29T06:57:55.193Z,19.56
2023-06-29T07:00:22.218Z,19.67
2023-06-29T07:02:49.163Z,19.66
2023-06-29T07:05:16.231Z,19.67
2023-06-29T07:07:43.126Z,19.68
2023-06-29T07:10:10.942Z,19.69
2023-06-29T07:12:38.079Z,19.80
2023-06-29T07:15:05.810Z,19.94
2023-06-29T07:17:33.602Z,20.16
2023-06-29T07:25:01.861Z,20.64
2023-06-29T07:27:28.688Z,20.82
2023-06-29T07:29:55.550Z,20.98
2023-06-29T07:32:22.430Z,21.08
2023-06-29T07:34:49.216Z,21.12
2023-06-29T07:37:16.377Z,21.28
2023-06-29T07:39:43.224Z,21.35
2023-06-29T07:42:10.075Z,21.50
2023-06-29T07:44:36.916Z,21.49
2023-06-29T07:47:04.005Z,21.40
2023-06-29T07:49:30.892Z,21.11
2023-06-29T07:51:59.045Z,20.84
2023-06-29T07:54:25.864Z,20.60
2023-06-29T07:59:22.592Z,20.65
2023-06-29T08:01:50.462Z,20.60
2023-06-29T08:06:42.859Z,20.62
2023-06-29T08:07:08.584Z,20.68
2023-06-29T08:09:36.826Z,20.68
2023-06-29T08:12:03.928Z,20.65
2023-06-29T08:14:33.488Z,20.61
2023-06-29T08:17:00.562Z,20.66
2023-06-29T08:19:27.660Z,20.86
2023-06-29T08:21:56.711Z,21.02
2023-06-29T08:24:23.752Z,21.07
2023-06-29T08:26:50.606Z,21.05
2023-06-29T08:29:17.795Z,21.12
2023-06-29T08:31:44.719Z,21.23
2023-06-29T08:34:11.915Z,21.25
2023-06-29T08:36:38.817Z,21.28
2023-06-29T08:39:05.646Z,21.29
2023-06-29T08:41:32.588Z,21.24
2023-06-29T08:43:59.482Z,21.15
2023-06-29T08:46:28.694Z,21.08
2023-06-29T08:48:55.771Z,20.95
2023-06-29T08:51:23.534Z,20.89
2023-06-29T08:53:51.332Z,20.90
2023-06-29T08:56:19.403Z,20.92
2023-06-29T08:58:46.618Z,20.87
2023-06-29T09:01:13.855Z,20.69
2023-06-29T09:03:41.619Z,20.67
2023-06-29T09:06:10.036Z,20.73
2023-06-29T09:08:39.068Z,20.81
2023-06-29T09:11:06.743Z,20.76
2023-06-29T09:13:34.884Z,20.68
2023-06-29T09:16:03.169Z,20.55
2023-06-29T09:18:31.003Z,20.42
2023-06-29T09:20:58.259Z,20.42
2023-06-29T09:23:27.890Z,20.37
2023-06-29T09:25:57.134Z,20.34
2023-06-29T09:28:25.219Z,20.40
2023-06-29T09:30:52.773Z,20.58
2023-06-29T09:33:20.533Z,20.91
2023-06-29T09:35:51.691Z,21.30
2023-06-29T09:38:19.373Z,21.52
2023-06-29T09:40:47.955Z,21.62
2023-06-29T09:43:18.214Z,21.76
2023-06-29T09:45:45.724Z,21.95
2023-06-29T09:50:53.525Z,22.06
2023-06-29T09:53:36.594Z,22.08
2023-06-29T09:56:04.649Z,22.14
2023-06-29T09:58:32.221Z,22.34
2023-06-29T10:01:01.444Z,22.57
2023-06-29T10:03:29.496Z,22.73
2023-06-29T10:06:00.626Z,23.08
2023-06-29T10:08:29.980Z,23.53
2023-06-29T10:11:03.827Z,23.93
2023-06-29T10:13:36.497Z,24.39
2023-06-29T10:16:04.282Z,24.67
2023-06-29T10:18:35.897Z,24.86
2023-06-29T10:21:02.982Z,24.83
2023-06-29T10:23:31.544Z,24.84
2023-06-29T10:26:01.001Z,24.99
2023-06-29T10:28:28.168Z,25.01
2023-06-29T10:30:59.406Z,24.99
2023-06-29T10:33:27.586Z,25.18
2023-06-29T10:35:59.253Z,25.30
2023-06-29T10:38:35.219Z,25.49
2023-06-29T10:41:06.009Z,25.82
2023-06-29T10:44:04.318Z,26.13
2023-06-29T10:46:46.484Z,26.20
2023-06-29T10:49:30.018Z,26.21
2023-06-29T10:52:04.204Z,26.38
2023-06-29T10:54:32.116Z,26.33
2023-06-29T10:57:02.470Z,26.18
2023-06-29T10:59:30.991Z,26.16
2023-06-29T11:01:58.501Z,26.15
2023-06-29T11:04:25.802Z,26.44
2023-06-29T11:06:52.771Z,26.75
2023-06-29T11:09:21.004Z,26.93
2023-06-29T11:11:49.676Z,27.13
2023-06-29T11:14:17.827Z,27.36
2023-06-29T11:16:44.746Z,27.73
2023-06-29T11:19:13.666Z,28.22
2023-06-29T11:21:42.215Z,28.57
2023-06-29T11:24:11.379Z,28.92
2023-06-29T11:26:38.475Z,29.16
2023-06-29T11:29:08.732Z,29.24
2023-06-29T11:31:35.692Z,29.44
2023-06-29T11:34:02.631Z,29.64
2023-06-29T11:36:30.967Z,29.87
2023-06-29T11:39:14.378Z,29.84
2023-06-29T11:41:42.305Z,29.74
2023-06-29T11:44:12.204Z,29.70
2023-06-29T11:46:54.233Z,29.51
2023-06-29T11:49:26.569Z,29.02
2023-06-29T11:51:54.119Z,28.47
2023-06-29T11:54:21.238Z,28.02
2023-06-29T11:56:49.995Z,28.05
2023-06-29T11:59:17.109Z,28.43
2023-06-29T12:01:45.849Z,28.80
2023-06-29T12:04:16.168Z,29.52
2023-06-29T12:06:58.974Z,29.96
2023-06-29T12:09:31.417Z,29.82
2023-06-29T12:12:00.540Z,29.64
2023-06-29T12:14:29.658Z,29.24
2023-06-29T12:19:34.396Z,29.42
2023-06-29T12:22:02.137Z,29.45
2023-06-29T12:24:30.124Z,29.45
2023-06-29T12:26:58.058Z,29.68
2023-06-29T12:29:24.980Z,29.24
2023-06-29T12:31:59.297Z,28.74
2023-06-29T12:34:26.542Z,28.25
2023-06-29T12:36:53.350Z,28.07
2023-06-29T12:39:20.954Z,27.99
2023-06-29T12:41:47.785Z,28.07
2023-06-29T12:44:14.617Z,28.04
2023-06-29T12:46:41.504Z,27.88
2023-06-29T12:49:08.738Z,27.55
2023-06-29T12:51:35.555Z,27.37
2023-06-29T12:54:02.664Z,27.81
2023-06-29T12:56:29.529Z,28.53
2023-06-29T12:58:56.432Z,29.07
2023-06-29T13:01:24.133Z,29.61
2023-06-29T13:03:51.102Z,30.31
2023-06-29T13:06:18.188Z,30.98
2023-06-29T13:08:45.007Z,31.33
2023-06-29T13:11:12.258Z,31.15
2023-06-29T13:13:39.203Z,30.71
2023-06-29T13:16:06.037Z,30.08
2023-06-29T13:18:32.899Z,29.87
2023-06-29T13:20:59.838Z,30.12
2023-06-29T13:23:26.740Z,30.64
2023-06-29T13:25:53.644Z,31.33
2023-06-29T13:28:21.600Z,31.87
2023-06-29T13:30:48.482Z,31.74
2023-06-29T13:33:15.673Z,31.44
2023-06-29T13:35:42.505Z,30.93
2023-06-29T13:38:09.356Z,30.49
2023-06-29T13:40:36.299Z,30.25
2023-06-29T13:43:03.195Z,29.98
2023-06-29T13:45:30.134Z,30.13
2023-06-29T13:48:00.587Z,30.46
2023-06-29T13:50:40.327Z,30.64
2023-06-29T13:53:08.048Z,30.85
2023-06-29T13:55:34.865Z,31.16
2023-06-29T13:58:01.803Z,31.47
2023-06-29T14:00:28.794Z,31.79
2023-06-29T14:02:58.173Z,31.96
2023-06-29T14:05:25.131Z,31.77
2023-06-29T14:07:52.049Z,31.25
2023-06-29T14:10:18.810Z,30.60
2023-06-29T14:12:45.789Z,30.11
2023-06-29T14:15:12.748Z,29.91
2023-06-29T14:17:40.099Z,29.74
2023-06-29T14:20:07.855Z,29.64
2023-06-29T14:22:36.682Z,29.51
2023-06-29T14:25:04.925Z,29.26
2023-06-29T14:27:31.841Z,28.82
2023-06-29T14:29:58.680Z,28.33
2023-06-29T14:32:25.658Z,28.04
2023-06-29T14:34:52.857Z,28.01
2023-06-29T14:37:19.760Z,27.92
2023-06-29T14:39:46.816Z,27.80
2023-06-29T14:42:13.699Z,27.72
2023-06-29T14:44:42.892Z,27.67
2023-06-29T14:47:11.352Z,27.60
2023-06-29T14:49:38.243Z,27.53
2023-06-29T14:52:05.324Z,27.46
2023-06-29T14:54:32.228Z,27.36
2023-06-29T14:56:59.269Z,27.25
2023-06-29T14:59:26.127Z,27.09
2023-06-29T15:01:53.065Z,26.94
2023-06-29T15:04:19.938Z,26.89
2023-06-29T15:06:52.320Z,26.88
2023-06-29T15:09:20.199Z,26.85
2023-06-29T15:11:47.109Z,26.77
2023-06-29T15:14:14.148Z,26.59
2023-06-29T15:16:41.157Z,26.31
2023-06-29T15:19:08.178Z,26.17
2023-06-29T15:21:35.129Z,26.01
2023-06-29T15:24:02.481Z,25.98
2023-06-29T15:26:29.400Z,26.02
2023-06-29T15:28:56.747Z,26.09
2023-06-29T15:31:23.684Z,26.12
2023-06-29T15:33:50.547Z,26.04
2023-06-29T15:36:17.521Z,25.89
2023-06-29T15:38:44.409Z,25.75
2023-06-29T15:41:11.312Z,25.67
2023-06-29T15:43:38.718Z,25.66
2023-06-29T15:46:05.781Z,25.67
2023-06-29T15:48:32.855Z,25.71
2023-06-29T15:51:00.975Z,25.82
2023-06-29T15:53:27.904Z,25.92
2023-06-29T15:55:54.800Z,25.89
2023-06-29T15:58:21.650Z,25.91
2023-06-29T16:00:48.473Z,25.83
2023-06-29T16:03:15.481Z,25.78
2023-06-29T16:05:42.506Z,25.63
2023-06-29T16:08:09.726Z,25.55
2023-06-29T16:10:36.598Z,25.47
2023-06-29T16:13:03.451Z,25.46
2023-06-29T16:15:30.754Z,25.46
2023-06-29T16:17:57.847Z,25.45
2023-06-29T16:20:24.715Z,25.45
2023-06-29T16:22:51.612Z,25.44
2023-06-29T16:25:24.459Z,25.36
2023-06-29T16:27:51.964Z,25.30
2023-06-29T16:30:18.907Z,25.17
2023-06-29T16:32:46.565Z,25.11
2023-06-29T16:35:14.283Z,25.05
2023-06-29T16:37:42.181Z,25.02
2023-06-29T16:40:09.557Z,24.96
2023-06-29T16:42:36.584Z,24.90
2023-06-29T16:45:04.206Z,24.83
2023-06-29T16:47:31.048Z,24.78
2023-06-29T16:49:59.033Z,24.74
2023-06-29T16:52:25.926Z,24.67
2023-06-29T16:54:52.687Z,24.62
2023-06-29T16:57:19.679Z,24.56
2023-06-29T16:59:46.512Z,24.49
2023-06-29T17:02:13.426Z,24.43
2023-06-29T17:04:41.031Z,24.38
2023-06-29T17:07:08.291Z,24.35
2023-06-29T17:09:35.119Z,24.28
2023-06-29T17:12:02.124Z,24.16
2023-06-29T17:14:28.944Z,24.06
2023-06-29T17:16:55.857Z,23.99
2023-06-29T17:19:22.906Z,23.93
2023-06-29T17:21:49.818Z,23.85
2023-06-29T17:24:16.715Z,23.78
2023-06-29T17:26:43.572Z,23.77
2023-06-29T17:29:10.480Z,23.72
2023-06-29T17:31:37.382Z,23.69
2023-06-29T17:34:04.194Z,23.64
2023-06-29T17:36:31.246Z,23.56
2023-06-29T17:38:58.154Z,23.49
2023-06-29T17:41:25.249Z,23.43
2023-06-29T17:43:52.082Z,23.38
2023-06-29T17:46:19.155Z,23.33
2023-06-29T17:48:46.351Z,23.27
2023-06-29T17:51:15.692Z,23.21
2023-06-29T17:53:45.406Z,23.12
2023-06-29T17:56:15.474Z,23.04
2023-06-29T17:58:44.573Z,22.95
2023-06-29T18:01:11.914Z,22.86
2023-06-29T18:03:40.591Z,22.77
2023-06-29T18:06:08.340Z,22.67
2023-06-29T18:08:35.324Z,22.56
2023-06-29T18:11:02.424Z,22.44
2023-06-29T18:13:29.200Z,22.33
2023-06-29T18:15:56.105Z,22.19
2023-06-29T18:18:22.965Z,22.06
2023-06-29T18:20:49.756Z,21.93
2023-06-29T18:23:16.555Z,21.80
2023-06-29T18:25:43.833Z,21.65
2023-06-29T18:28:11.121Z,21.51
2023-06-29T18:30:38.079Z,21.37
2023-06-29T18:33:04.969Z,21.21
2023-06-29T18:35:31.836Z,21.03
2023-06-29T18:37:58.656Z,20.87
2023-06-29T18:40:28.200Z,20.69
2023-06-29T18:42:55.172Z,20.54
2023-06-29T18:45:24.227Z,20.42
2023-06-29T18:47:51.087Z,20.32
2023-06-29T18:50:17.965Z,20.19
2023-06-29T18:52:45.843Z,20.07
2023-06-29T18:55:12.607Z,19.95
2023-06-29T18:57:39.521Z,19.82
2023-06-29T19:00:08.167Z,19.65
2023-06-29T19:02:35.121Z,19.49
2023-06-29T19:05:03.959Z,19.30
2023-06-29T19:07:30.950Z,19.10
2023-06-29T19:09:57.820Z,18.97
2023-06-29T19:12:38.706Z,18.86
2023-06-29T19:15:07.850Z,18.77
2023-06-29T19:17:35.332Z,18.65
2023-06-29T19:20:02.263Z,18.52
2023-06-29T19:22:29.097Z,18.41
2023-06-29T19:24:55.856Z,18.30
2023-06-29T19:27:22.718Z,18.18
2023-06-29T19:29:49.733Z,18.06
2023-06-29T19:32:16.616Z,17.94
2023-06-29T19:34:43.614Z,17.84
2023-06-29T19:37:11.425Z,17.79
2023-06-29T19:39:38.224Z,17.72
2023-06-29T19:42:06.465Z,17.64
2023-06-29T19:44:33.404Z,17.53
2023-06-29T19:47:00.237Z,17.40
2023-06-29T19:49:28.009Z,17.28
2023-06-29T19:51:58.990Z,17.20
2023-06-29T19:54:26.503Z,17.12
2023-06-29T19:56:53.504Z,17.04
2023-06-29T19:59:20.354Z,16.98
2023-06-29T20:01:47.215Z,16.92
2023-06-29T20:04:14.157Z,16.84
2023-06-29T20:07:45.451Z,16.81
2023-06-29T20:10:13.127Z,16.76
2023-06-29T20:12:40.241Z,16.73
2023-06-29T20:15:08.526Z,16.67
2023-06-29T20:17:36.026Z,16.63
2023-06-29T20:20:03.681Z,16.62
2023-06-29T20:22:31.188Z,16.64
2023-06-29T20:24:58.009Z,16.66
2023-06-29T20:27:26.296Z,16.68
2023-06-29T20:29:54.185Z,16.69
2023-06-29T20:32:22.498Z,16.70
2023-06-29T20:34:49.426Z,16.71
2023-06-29T20:37:16.296Z,16.72
2023-06-29T20:39:43.191Z,16.72
2023-06-29T20:42:10.000Z,16.72
2023-06-29T20:44:37.205Z,16.71
2023-06-29T20:47:04.664Z,16.71
2023-06-29T20:49:31.468Z,16.70
2023-06-29T20:51:59.484Z,16.67
2023-06-29T20:54:27.276Z,16.62
2023-06-29T20:56:54.465Z,16.58
2023-06-29T20:59:21.296Z,16.55
2023-06-29T21:01:48.230Z,16.53
2023-06-29T21:04:15.351Z,16.51
2023-06-29T21:06:42.226Z,16.50
2023-06-29T21:09:09.072Z,16.48
2023-06-29T21:11:38.578Z,16.44
2023-06-29T21:14:07.825Z,16.43
2023-06-29T21:16:35.428Z,16.40
2023-06-29T21:19:03.259Z,16.38
2023-06-29T21:21:30.309Z,16.35
2023-06-29T21:23:57.195Z,16.31
2023-06-29T21:26:25.318Z,16.29
2023-06-29T21:28:55.384Z,16.24
2023-06-29T21:31:22.538Z,16.18
2023-06-29T21:33:49.820Z,16.13
2023-06-29T21:36:16.935Z,16.08
2023-06-29T21:38:50.587Z,16.05
2023-06-29T21:41:17.880Z,16.05
2023-06-29T21:43:45.011Z,16.09
2023-06-29T21:46:11.858Z,16.10
2023-06-29T21:48:40.414Z,16.08
2023-06-29T21:51:08.597Z,16.05
2023-06-29T21:53:37.024Z,16.00
2023-06-29T21:56:20.884Z,15.97
2023-06-29T21:58:50.992Z,15.93
2023-06-29T22:01:17.946Z,15.89
2023-06-29T22:03:44.923Z,15.88
2023-06-29T22:06:12.065Z,15.88
2023-06-29T22:08:38.849Z,15.85
2023-06-29T22:11:06.166Z,15.84
2023-06-29T22:13:32.973Z,15.83
2023-06-29T22:15:59.863Z,15.83
2023-06-29T22:18:26.842Z,15.84
2023-06-29T22:20:53.866Z,15.85
2023-06-29T22:23:21.013Z,15.86
2023-06-29T22:25:48.080Z,15.87
2023-06-29T22:28:15.023Z,15.84
2023-06-29T22:30:41.834Z,15.82
2023-06-29T22:33:08.688Z,15.79
2023-06-29T22:35:35.658Z,15.74
2023-06-29T22:38:02.663Z,15.68
2023-06-29T22:40:29.478Z,15.64
2023-06-29T22:42:56.537Z,15.61
2023-06-29T22:45:23.724Z,15.61
2023-06-29T22:47:50.615Z,15.61
2023-06-29T22:50:17.478Z,15.61
2023-06-29T22:52:44.982Z,15.61
2023-06-29T22:55:11.911Z,15.61
2023-06-29T22:57:38.748Z,15.57
2023-06-29T23:00:08.502Z,15.54
2023-06-29T23:02:35.419Z,15.55
2023-06-29T23:05:02.287Z,15.54
2023-06-29T23:07:29.465Z,15.50
2023-06-29T23:09:56.355Z,15.47
2023-06-29T23:12:27.291Z,15.47
2023-06-29T23:14:56.096Z,15.47
2023-06-29T23:17:24.599Z,15.47
2023-06-29T23:19:51.617Z,15.50
2023-06-29T23:22:20.270Z,15.51
2023-06-29T23:24:47.356Z,15.54
2023-06-29T23:27:14.202Z,15.57
2023-06-29T23:29:41.522Z,15.57
2023-06-29T23:32:08.687Z,15.56
2023-06-29T23:34:35.604Z,15.54
2023-06-29T23:37:02.402Z,15.50
2023-06-29T23:39:29.238Z,15.44
2023-06-29T23:41:56.038Z,15.35
2023-06-29T23:44:22.968Z,15.26
2023-06-29T23:46:50.887Z,15.21
2023-06-29T23:49:20.394Z,15.18
2023-06-29T23:51:49.006Z,15.18
2023-06-29T23:54:16.582Z,15.19
2023-06-29T23:56:46.204Z,15.25
2023-06-29T23:59:13.076Z,15.32
